Kenansville, NC (28349)

5:34 PM EST on February 09, 2016 (GMT -0500)
Duplin Country Club Estates | | Change Station
CLOSE
Current Station
Personal Weather Station
Location: Kenansville, NC
Elevation: 118 ft
Nearby Weather Stations
Active Advisory: Flood Warning

Elev 118 ft 34.99 °N, 78.01 °W | Updated 40 seconds ago

Overcast
Overcast
43.0 °F
Feels Like 41 °F
N
4.3
Wind Variable Wind from West
Gusts 4.9 mph

Today
High -- | Low -- °F
--% Chance of Precip.
Yesterday
High -- | Low -- °F
Precip. -- in
Pressure 29.71 in
Visibility 10.0 miles
Clouds Mostly Cloudy 5000 ft
Overcast 7000 ft
Windchill 41 °F
Dew Point 24 °F
Humidity 47%
Rainfall 0.00 in
Snow Depth Not available.
7:04 AM 5:48 PM
New Moon, 2% visible
METAR KDPL 092215Z AUTO 24009G14KT 10SM BKN050 OVC070 06/M05 A2971 RMK AO2 T00551049
Pressure 29.71 in
Visibility 10.0 miles
Clouds Mostly Cloudy 5000 ft
Overcast 7000 ft
Windchill 41 °F
Dew Point 24 °F
Humidity 47%
Rainfall 0.00 in
Snow Depth Not available.
7:04 AM 5:48 PM
New Moon, 2% visible
METAR KDPL 092215Z AUTO 24009G14KT 10SM BKN050 OVC070 06/M05 A2971 RMK AO2 T00551049

10-Day Weather Forecast

Almanac

Astronomy

Feb. 09, 2016 Rise Set
Actual Time
Civil Twilight
Nautical Twilight
Astronomical Twilight
Moon
Length of Visible Light
Length of Day
Tomorrow will be .
, % of the Moon is Illuminated

Today's Extremes

State Highs State Lows

Community

WunderPhotos

Upload Photos

1,891,725 photos uploaded!

WunderBlog® & News

Nearby

Air Quality

  Air Quality AQ Index Pollutant
Not available.

Snow Depth

Station Depth Elevation

Earthquake Activity

City Distance Mag. Time & Date
Minimum magnitude displayed is 2.5.

Coastal Water Temperatures

Place Temperature

Stations

Nearby Weather Stations

Station Location Temp. Windchill Dew Point Humidity Wind Precip. Elev Updated Type
                   

Watches & Warnings

Flood Warning
Issued: 9:37 AM EST Feb. 9, 2016 – National Weather Service

The Flood Warning continues for
the Northeast Cape fear river near Chinquapin.
* Until further notice... or until the warning is cancelled.
* At 9 am Tuesday the stage was 15.0 feet.
* Minor flooding is occurring and moderate flooding is forecast.
* Flood stage is 13.0 feet.
* Forecast... the river will continue rising to near 15.0 feet by this
afternoon. Additional rises may be possible thereafter.
* Impact... at 15.0 feet... secondary roads adjacent to the river will
begin to get flooded and may be impassable. Tributaries that dump
into the river will also flood secondary roads. Residents who live
adjacent to the river need to move property to higher ground.

                  Fld observed forecast 8am
location stg stg day time Wed Thu Fri
Chinquapin 13 15.0 Tue 09 am 15.0 14.9 14.4

Lat... Lon 3491 7779 3481 7777 3472 7786 3472 7798
          3482 7791 3491 7792